sensor_id;sensor_type;location;lat;lon;timestamp;temperature;humidity
22742;DHT22;11538;48.884;8.696;2022-09-24T00:01:36;13.40;99.90
22742;DHT22;11538;48.884;8.696;2022-09-24T00:04:09;13.40;99.90
22742;DHT22;11538;48.884;8.696;2022-09-24T00:06:41;13.40;99.90
22742;DHT22;11538;48.884;8.696;2022-09-24T00:09:14;13.40;99.90
22742;DHT22;11538;48.884;8.696;2022-09-24T00:11:44;13.50;99.90
22742;DHT22;11538;48.884;8.696;2022-09-24T00:14:11;13.50;99.90
22742;DHT22;11538;48.884;8.696;2022-09-24T00:16:40;13.50;99.90
22742;DHT22;11538;48.884;8.696;2022-09-24T00:19:08;13.50;99.90
22742;DHT22;11538;48.884;8.696;2022-09-24T00:21:36;13.50;99.90
22742;DHT22;11538;48.884;8.696;2022-09-24T00:24:09;13.50;99.90
22742;DHT22;11538;48.884;8.696;2022-09-24T00:26:59;13.50;99.90
22742;DHT22;11538;48.884;8.696;2022-09-24T00:29:28;13.50;99.90
22742;DHT22;11538;48.884;8.696;2022-09-24T00:31:59;13.60;99.90
22742;DHT22;11538;48.884;8.696;2022-09-24T00:34:26;13.50;99.90
22742;DHT22;11538;48.884;8.696;2022-09-24T00:36:52;13.50;99.90
22742;DHT22;11538;48.884;8.696;2022-09-24T00:39:19;13.50;99.90
22742;DHT22;11538;48.884;8.696;2022-09-24T00:41:46;13.50;99.90
22742;DHT22;11538;48.884;8.696;2022-09-24T00:53:02;13.40;99.90
22742;DHT22;11538;48.884;8.696;2022-09-24T00:55:35;13.40;99.90
22742;DHT22;11538;48.884;8.696;2022-09-24T00:58:06;13.40;99.90
22742;DHT22;11538;48.884;8.696;2022-09-24T01:00:37;13.30;99.90
22742;DHT22;11538;48.884;8.696;2022-09-24T01:03:08;13.30;99.90
22742;DHT22;11538;48.884;8.696;2022-09-24T01:05:39;13.20;99.90
22742;DHT22;11538;48.884;8.696;2022-09-24T01:08:06;13.10;99.90
22742;DHT22;11538;48.884;8.696;2022-09-24T01:13:59;13.00;99.90
22742;DHT22;11538;48.884;8.696;2022-09-24T01:16:41;13.00;99.90
22742;DHT22;11538;48.884;8.696;2022-09-24T01:19:16;13.00;99.90
22742;DHT22;11538;48.884;8.696;2022-09-24T01:22:17;13.00;99.90
22742;DHT22;11538;48.884;8.696;2022-09-24T01:25:06;12.90;99.90
22742;DHT22;11538;48.884;8.696;2022-09-24T01:28:05;12.90;99.90
22742;DHT22;11538;48.884;8.696;2022-09-24T01:30:59;12.90;99.90
22742;DHT22;11538;48.884;8.696;2022-09-24T01:33:32;12.90;99.90
22742;DHT22;11538;48.884;8.696;2022-09-24T01:36:03;12.90;99.90
22742;DHT22;11538;48.884;8.696;2022-09-24T01:38:40;12.90;99.90
22742;DHT22;11538;48.884;8.696;2022-09-24T01:41:11;12.90;99.90
22742;DHT22;11538;48.884;8.696;2022-09-24T01:43:42;12.90;99.90
22742;DHT22;11538;48.884;8.696;2022-09-24T01:46:11;12.90;99.90
22742;DHT22;11538;48.884;8.696;2022-09-24T01:48:40;12.80;99.90
22742;DHT22;11538;48.884;8.696;2022-09-24T01:54:02;12.70;99.90
22742;DHT22;11538;48.884;8.696;2022-09-24T01:56:48;12.60;99.90
22742;DHT22;11538;48.884;8.696;2022-09-24T01:59:41;12.50;99.90
22742;DHT22;11538;48.884;8.696;2022-09-24T02:02:22;12.50;99.90
22742;DHT22;11538;48.884;8.696;2022-09-24T02:05:01;12.50;99.90
22742;DHT22;11538;48.884;8.696;2022-09-24T02:07:46;12.60;99.90
22742;DHT22;11538;48.884;8.696;2022-09-24T02:10:20;12.50;99.90
22742;DHT22;11538;48.884;8.696;2022-09-24T02:12:55;12.60;99.90
22742;DHT22;11538;48.884;8.696;2022-09-24T02:15:38;12.50;99.90
22742;DHT22;11538;48.884;8.696;2022-09-24T02:18:14;12.50;99.90
22742;DHT22;11538;48.884;8.696;2022-09-24T02:20:46;12.50;99.90
22742;DHT22;11538;48.884;8.696;2022-09-24T02:23:16;12.50;99.90
22742;DHT22;11538;48.884;8.696;2022-09-24T02:25:52;12.50;99.90
22742;DHT22;11538;48.884;8.696;2022-09-24T02:28:24;12.50;99.90
22742;DHT22;11538;48.884;8.696;2022-09-24T02:30:58;12.50;99.90
22742;DHT22;11538;48.884;8.696;2022-09-24T02:33:32;12.50;99.90
22742;DHT22;11538;48.884;8.696;2022-09-24T02:36:20;12.50;99.90
22742;DHT22;11538;48.884;8.696;2022-09-24T02:38:51;12.50;99.90
22742;DHT22;11538;48.884;8.696;2022-09-24T02:41:18;12.50;99.90
22742;DHT22;11538;48.884;8.696;2022-09-24T02:43:50;12.50;99.90
22742;DHT22;11538;48.884;8.696;2022-09-24T02:46:17;12.40;99.90
22742;DHT22;11538;48.884;8.696;2022-09-24T02:48:45;12.40;99.90
22742;DHT22;11538;48.884;8.696;2022-09-24T02:51:11;12.40;99.90
22742;DHT22;11538;48.884;8.696;2022-09-24T02:53:38;12.40;99.90
22742;DHT22;11538;48.884;8.696;2022-09-24T02:56:06;12.50;99.90
22742;DHT22;11538;48.884;8.696;2022-09-24T02:58:34;12.40;99.90
22742;DHT22;11538;48.884;8.696;2022-09-24T03:01:03;12.50;99.90
22742;DHT22;11538;48.884;8.696;2022-09-24T03:03:31;12.50;99.90
22742;DHT22;11538;48.884;8.696;2022-09-24T03:05:59;12.50;99.90
22742;DHT22;11538;48.884;8.696;2022-09-24T03:08:25;12.50;99.90
22742;DHT22;11538;48.884;8.696;2022-09-24T03:10:53;12.60;99.90
22742;DHT22;11538;48.884;8.696;2022-09-24T03:13:21;12.60;99.90
22742;DHT22;11538;48.884;8.696;2022-09-24T03:15:48;12.60;99.90
22742;DHT22;11538;48.884;8.696;2022-09-24T03:18:15;12.50;99.90
22742;DHT22;11538;48.884;8.696;2022-09-24T03:20:42;12.50;99.90
22742;DHT22;11538;48.884;8.696;2022-09-24T03:23:09;12.50;99.90
22742;DHT22;11538;48.884;8.696;2022-09-24T03:25:36;12.50;99.90
22742;DHT22;11538;48.884;8.696;2022-09-24T03:28:03;12.50;99.90
22742;DHT22;11538;48.884;8.696;2022-09-24T03:30:29;12.50;99.90
22742;DHT22;11538;48.884;8.696;2022-09-24T03:33:15;12.50;99.90
22742;DHT22;11538;48.884;8.696;2022-09-24T03:35:42;12.50;99.90
22742;DHT22;11538;48.884;8.696;2022-09-24T03:38:09;12.50;99.90
22742;DHT22;11538;48.884;8.696;2022-09-24T03:40:35;12.50;99.90
22742;DHT22;11538;48.884;8.696;2022-09-24T03:43:02;12.50;99.90
22742;DHT22;11538;48.884;8.696;2022-09-24T03:45:29;12.60;99.90
22742;DHT22;11538;48.884;8.696;2022-09-24T03:47:56;12.60;99.90
22742;DHT22;11538;48.884;8.696;2022-09-24T03:50:23;12.60;99.90
22742;DHT22;11538;48.884;8.696;2022-09-24T03:52:50;12.60;99.90
22742;DHT22;11538;48.884;8.696;2022-09-24T03:55:17;12.60;99.90
22742;DHT22;11538;48.884;8.696;2022-09-24T03:57:43;12.60;99.90
22742;DHT22;11538;48.884;8.696;2022-09-24T04:00:11;12.60;99.90
22742;DHT22;11538;48.884;8.696;2022-09-24T04:02:38;12.60;99.90
22742;DHT22;11538;48.884;8.696;2022-09-24T04:05:06;12.60;99.90
22742;DHT22;11538;48.884;8.696;2022-09-24T04:07:34;12.60;99.90
22742;DHT22;11538;48.884;8.696;2022-09-24T04:10:01;12.70;99.90
22742;DHT22;11538;48.884;8.696;2022-09-24T04:12:27;12.70;99.90
22742;DHT22;11538;48.884;8.696;2022-09-24T04:14:55;12.70;99.90
22742;DHT22;11538;48.884;8.696;2022-09-24T04:17:22;12.60;99.90
22742;DHT22;11538;48.884;8.696;2022-09-24T04:19:48;12.60;99.90
22742;DHT22;11538;48.884;8.696;2022-09-24T04:22:16;12.60;99.90
22742;DHT22;11538;48.884;8.696;2022-09-24T04:24:43;12.60;99.90
22742;DHT22;11538;48.884;8.696;2022-09-24T04:27:10;12.60;99.90
22742;DHT22;11538;48.884;8.696;2022-09-24T04:29:37;12.60;99.90
22742;DHT22;11538;48.884;8.696;2022-09-24T04:32:03;12.60;99.90
22742;DHT22;11538;48.884;8.696;2022-09-24T04:34:30;12.60;99.90
22742;DHT22;11538;48.884;8.696;2022-09-24T04:36:58;12.60;99.90
22742;DHT22;11538;48.884;8.696;2022-09-24T04:39:25;12.60;99.90
22742;DHT22;11538;48.884;8.696;2022-09-24T04:41:53;12.60;99.90
22742;DHT22;11538;48.884;8.696;2022-09-24T04:44:20;12.60;99.90
22742;DHT22;11538;48.884;8.696;2022-09-24T04:46:48;12.50;99.90
22742;DHT22;11538;48.884;8.696;2022-09-24T04:49:15;12.60;99.90
22742;DHT22;11538;48.884;8.696;2022-09-24T04:51:42;12.50;99.90
22742;DHT22;11538;48.884;8.696;2022-09-24T04:54:09;12.60;99.90
22742;DHT22;11538;48.884;8.696;2022-09-24T04:56:36;12.60;99.90
22742;DHT22;11538;48.884;8.696;2022-09-24T04:59:03;12.50;99.90
22742;DHT22;11538;48.884;8.696;2022-09-24T05:01:30;12.50;99.90
22742;DHT22;11538;48.884;8.696;2022-09-24T05:03:57;12.50;99.90
22742;DHT22;11538;48.884;8.696;2022-09-24T05:06:24;12.50;99.90
22742;DHT22;11538;48.884;8.696;2022-09-24T05:08:51;12.50;99.90
22742;DHT22;11538;48.884;8.696;2022-09-24T05:11:18;12.50;99.90
22742;DHT22;11538;48.884;8.696;2022-09-24T05:13:45;12.50;99.90
22742;DHT22;11538;48.884;8.696;2022-09-24T05:16:12;12.50;99.90
22742;DHT22;11538;48.884;8.696;2022-09-24T05:18:39;12.50;99.90
22742;DHT22;11538;48.884;8.696;2022-09-24T05:21:06;12.50;99.90
22742;DHT22;11538;48.884;8.696;2022-09-24T05:23:33;12.50;99.90
22742;DHT22;11538;48.884;8.696;2022-09-24T05:26:00;12.50;99.90
22742;DHT22;11538;48.884;8.696;2022-09-24T05:28:45;12.40;99.90
22742;DHT22;11538;48.884;8.696;2022-09-24T05:31:12;12.40;99.90
22742;DHT22;11538;48.884;8.696;2022-09-24T05:33:39;12.50;99.90
22742;DHT22;11538;48.884;8.696;2022-09-24T05:36:06;12.50;99.90
22742;DHT22;11538;48.884;8.696;2022-09-24T05:38:33;12.40;99.90
22742;DHT22;11538;48.884;8.696;2022-09-24T05:41:00;12.40;99.90
22742;DHT22;11538;48.884;8.696;2022-09-24T05:43:27;12.40;99.90
22742;DHT22;11538;48.884;8.696;2022-09-24T05:45:54;12.40;99.90
22742;DHT22;11538;48.884;8.696;2022-09-24T05:48:24;12.40;99.90
22742;DHT22;11538;48.884;8.696;2022-09-24T05:50:54;12.40;99.90
22742;DHT22;11538;48.884;8.696;2022-09-24T05:53:21;12.40;99.90
22742;DHT22;11538;48.884;8.696;2022-09-24T05:55:51;12.50;99.90
22742;DHT22;11538;48.884;8.696;2022-09-24T05:58:18;12.50;99.90
22742;DHT22;11538;48.884;8.696;2022-09-24T06:00:46;12.60;99.90
22742;DHT22;11538;48.884;8.696;2022-09-24T06:03:14;12.50;99.90
22742;DHT22;11538;48.884;8.696;2022-09-24T06:05:47;12.60;99.90
22742;DHT22;11538;48.884;8.696;2022-09-24T06:08:16;12.60;99.90
22742;DHT22;11538;48.884;8.696;2022-09-24T06:10:45;12.60;99.90
22742;DHT22;11538;48.884;8.696;2022-09-24T06:13:17;12.60;99.90
22742;DHT22;11538;48.884;8.696;2022-09-24T06:15:45;12.60;99.90
22742;DHT22;11538;48.884;8.696;2022-09-24T06:18:12;12.60;99.90
22742;DHT22;11538;48.884;8.696;2022-09-24T06:20:39;12.60;99.90
22742;DHT22;11538;48.884;8.696;2022-09-24T06:23:06;12.70;99.90
22742;DHT22;11538;48.884;8.696;2022-09-24T06:25:33;12.70;99.90
22742;DHT22;11538;48.884;8.696;2022-09-24T06:28:02;12.70;99.90
22742;DHT22;11538;48.884;8.696;2022-09-24T06:30:35;12.70;99.90
22742;DHT22;11538;48.884;8.696;2022-09-24T06:33:09;12.70;99.90
22742;DHT22;11538;48.884;8.696;2022-09-24T06:35:39;12.80;99.90
22742;DHT22;11538;48.884;8.696;2022-09-24T06:38:10;12.80;99.90
22742;DHT22;11538;48.884;8.696;2022-09-24T06:40:39;12.80;99.90
22742;DHT22;11538;48.884;8.696;2022-09-24T06:43:08;12.90;99.90
22742;DHT22;11538;48.884;8.696;2022-09-24T06:45:36;12.90;99.90
22742;DHT22;11538;48.884;8.696;2022-09-24T06:48:04;12.90;99.90
22742;DHT22;11538;48.884;8.696;2022-09-24T06:50:33;12.90;99.90
22742;DHT22;11538;48.884;8.696;2022-09-24T06:53:04;13.00;99.90
22742;DHT22;11538;48.884;8.696;2022-09-24T06:55:33;13.00;99.90
22742;DHT22;11538;48.884;8.696;2022-09-24T06:58:09;13.00;99.90
22742;DHT22;11538;48.884;8.696;2022-09-24T07:00:41;13.00;99.90
22742;DHT22;11538;48.884;8.696;2022-09-24T07:03:13;13.10;99.90
22742;DHT22;11538;48.884;8.696;2022-09-24T07:05:42;13.20;99.90
22742;DHT22;11538;48.884;8.696;2022-09-24T07:08:09;13.20;99.90
22742;DHT22;11538;48.884;8.696;2022-09-24T07:10:40;13.30;99.90
22742;DHT22;11538;48.884;8.696;2022-09-24T07:13:07;13.30;99.90
22742;DHT22;11538;48.884;8.696;2022-09-24T07:15:34;13.30;99.90
22742;DHT22;11538;48.884;8.696;2022-09-24T07:18:01;13.40;99.90
22742;DHT22;11538;48.884;8.696;2022-09-24T07:20:28;13.40;99.90
22742;DHT22;11538;48.884;8.696;2022-09-24T07:22:55;13.40;99.90
22742;DHT22;11538;48.884;8.696;2022-09-24T07:25:22;13.50;99.90
22742;DHT22;11538;48.884;8.696;2022-09-24T07:27:49;13.60;99.90
22742;DHT22;11538;48.884;8.696;2022-09-24T07:30:16;13.60;99.90
22742;DHT22;11538;48.884;8.696;2022-09-24T07:32:44;13.60;99.90
22742;DHT22;11538;48.884;8.696;2022-09-24T07:35:11;13.70;99.90
22742;DHT22;11538;48.884;8.696;2022-09-24T07:37:38;13.70;99.90
22742;DHT22;11538;48.884;8.696;2022-09-24T07:40:05;13.80;99.90
22742;DHT22;11538;48.884;8.696;2022-09-24T07:42:32;13.80;99.90
22742;DHT22;11538;48.884;8.696;2022-09-24T07:44:59;13.80;99.90
22742;DHT22;11538;48.884;8.696;2022-09-24T07:47:27;13.90;99.90
22742;DHT22;11538;48.884;8.696;2022-09-24T07:49:54;13.90;99.90
22742;DHT22;11538;48.884;8.696;2022-09-24T07:52:20;13.90;99.90
22742;DHT22;11538;48.884;8.696;2022-09-24T07:54:50;14.00;99.90
22742;DHT22;11538;48.884;8.696;2022-09-24T07:57:17;14.00;99.90
22742;DHT22;11538;48.884;8.696;2022-09-24T07:59:44;14.00;99.90
22742;DHT22;11538;48.884;8.696;2022-09-24T08:02:15;14.10;99.90
22742;DHT22;11538;48.884;8.696;2022-09-24T08:04:44;14.10;99.90
22742;DHT22;11538;48.884;8.696;2022-09-24T08:07:14;14.10;99.90
22742;DHT22;11538;48.884;8.696;2022-09-24T08:09:41;14.10;99.90
22742;DHT22;11538;48.884;8.696;2022-09-24T08:12:08;14.20;99.90
22742;DHT22;11538;48.884;8.696;2022-09-24T08:14:36;14.20;99.90
22742;DHT22;11538;48.884;8.696;2022-09-24T08:17:03;14.30;99.90
22742;DHT22;11538;48.884;8.696;2022-09-24T08:19:30;14.30;99.90
22742;DHT22;11538;48.884;8.696;2022-09-24T08:21:58;14.30;99.90
22742;DHT22;11538;48.884;8.696;2022-09-24T08:24:25;14.30;99.90
22742;DHT22;11538;48.884;8.696;2022-09-24T08:26:52;14.30;99.90
22742;DHT22;11538;48.884;8.696;2022-09-24T08:29:19;14.30;99.90
22742;DHT22;11538;48.884;8.696;2022-09-24T08:31:46;14.30;99.90
22742;DHT22;11538;48.884;8.696;2022-09-24T08:34:13;14.30;99.90
22742;DHT22;11538;48.884;8.696;2022-09-24T08:36:40;14.40;99.90
22742;DHT22;11538;48.884;8.696;2022-09-24T08:39:09;14.40;99.90
22742;DHT22;11538;48.884;8.696;2022-09-24T08:41:46;14.40;99.90
22742;DHT22;11538;48.884;8.696;2022-09-24T08:44:41;14.50;99.90
22742;DHT22;11538;48.884;8.696;2022-09-24T08:48:18;14.50;99.90
22742;DHT22;11538;48.884;8.696;2022-09-24T08:50:32;14.50;99.90
22742;DHT22;11538;48.884;8.696;2022-09-24T08:53:21;14.50;99.90
22742;DHT22;11538;48.884;8.696;2022-09-24T08:56:03;14.60;99.90
22742;DHT22;11538;48.884;8.696;2022-09-24T08:58:52;14.50;99.90
22742;DHT22;11538;48.884;8.696;2022-09-24T09:12:14;14.70;99.90
22742;DHT22;11538;48.884;8.696;2022-09-24T09:17:58;14.70;99.90
22742;DHT22;11538;48.884;8.696;2022-09-24T09:20:34;14.80;99.90
22742;DHT22;11538;48.884;8.696;2022-09-24T09:25:56;14.80;99.90
22742;DHT22;11538;48.884;8.696;2022-09-24T09:28:31;14.80;99.90
22742;DHT22;11538;48.884;8.696;2022-09-24T09:37:19;14.90;99.90
22742;DHT22;11538;48.884;8.696;2022-09-24T09:40:02;14.90;99.90
22742;DHT22;11538;48.884;8.696;2022-09-24T09:42:48;14.90;99.90
22742;DHT22;11538;48.884;8.696;2022-09-24T09:45:51;14.90;99.90
22742;DHT22;11538;48.884;8.696;2022-09-24T09:48:49;15.00;99.90
22742;DHT22;11538;48.884;8.696;2022-09-24T09:51:24;15.00;99.90
22742;DHT22;11538;48.884;8.696;2022-09-24T09:53:58;15.10;99.90
22742;DHT22;11538;48.884;8.696;2022-09-24T09:56:49;15.10;99.90
22742;DHT22;11538;48.884;8.696;2022-09-24T09:59:21;15.20;99.90
22742;DHT22;11538;48.884;8.696;2022-09-24T10:01:55;15.30;99.90
22742;DHT22;11538;48.884;8.696;2022-09-24T10:07:11;15.60;99.90
22742;DHT22;11538;48.884;8.696;2022-09-24T10:09:41;15.60;99.90
22742;DHT22;11538;48.884;8.696;2022-09-24T10:12:19;15.70;99.90
22742;DHT22;11538;48.884;8.696;2022-09-24T10:15:14;15.70;99.90
22742;DHT22;11538;48.884;8.696;2022-09-24T10:17:47;15.80;99.90
22742;DHT22;11538;48.884;8.696;2022-09-24T10:20:28;16.00;99.90
22742;DHT22;11538;48.884;8.696;2022-09-24T10:23:02;16.10;99.90
22742;DHT22;11538;48.884;8.696;2022-09-24T10:25:33;16.30;99.90
22742;DHT22;11538;48.884;8.696;2022-09-24T10:28:07;16.40;99.90
22742;DHT22;11538;48.884;8.696;2022-09-24T10:31:08;16.50;99.90
22742;DHT22;11538;48.884;8.696;2022-09-24T10:33:42;16.60;99.90
22742;DHT22;11538;48.884;8.696;2022-09-24T10:36:15;16.60;99.90
22742;DHT22;11538;48.884;8.696;2022-09-24T10:38:46;16.60;99.90
22742;DHT22;11538;48.884;8.696;2022-09-24T10:41:21;16.60;99.90
22742;DHT22;11538;48.884;8.696;2022-09-24T10:43:56;16.60;99.90
22742;DHT22;11538;48.884;8.696;2022-09-24T10:46:38;16.50;99.90
22742;DHT22;11538;48.884;8.696;2022-09-24T10:52:53;16.50;99.90
22742;DHT22;11538;48.884;8.696;2022-09-24T10:55:35;16.50;99.90
22742;DHT22;11538;48.884;8.696;2022-09-24T11:01:20;16.40;99.90
22742;DHT22;11538;48.884;8.696;2022-09-24T11:04:21;16.40;99.90
22742;DHT22;11538;48.884;8.696;2022-09-24T11:10:25;16.30;99.90
22742;DHT22;11538;48.884;8.696;2022-09-24T11:16:37;16.30;99.90
22742;DHT22;11538;48.884;8.696;2022-09-24T11:23:29;16.40;99.90
22742;DHT22;11538;48.884;8.696;2022-09-24T11:36:30;17.00;99.90
22742;DHT22;11538;48.884;8.696;2022-09-24T11:42:26;17.10;99.90
22742;DHT22;11538;48.884;8.696;2022-09-24T11:48:54;17.00;99.90
22742;DHT22;11538;48.884;8.696;2022-09-24T11:51:38;17.00;99.90
22742;DHT22;11538;48.884;8.696;2022-09-24T11:54:23;17.00;99.90
22742;DHT22;11538;48.884;8.696;2022-09-24T11:57:32;17.10;99.90
22742;DHT22;11538;48.884;8.696;2022-09-24T12:00:11;17.10;99.90
22742;DHT22;11538;48.884;8.696;2022-09-24T12:02:50;17.10;99.90
22742;DHT22;11538;48.884;8.696;2022-09-24T12:08:38;17.10;99.90
22742;DHT22;11538;48.884;8.696;2022-09-24T12:11:30;17.00;99.90
22742;DHT22;11538;48.884;8.696;2022-09-24T12:14:12;17.00;99.90
22742;DHT22;11538;48.884;8.696;2022-09-24T12:16:46;17.00;99.90
22742;DHT22;11538;48.884;8.696;2022-09-24T12:19:35;17.00;99.90
22742;DHT22;11538;48.884;8.696;2022-09-24T12:22:21;17.10;99.90
22742;DHT22;11538;48.884;8.696;2022-09-24T12:24:53;17.10;99.90
22742;DHT22;11538;48.884;8.696;2022-09-24T12:27:34;17.10;99.90
22742;DHT22;11538;48.884;8.696;2022-09-24T12:33:42;17.10;99.90
22742;DHT22;11538;48.884;8.696;2022-09-24T12:36:54;17.10;99.90
22742;DHT22;11538;48.884;8.696;2022-09-24T12:39:44;17.10;99.90
22742;DHT22;11538;48.884;8.696;2022-09-24T12:42:20;17.10;99.90
22742;DHT22;11538;48.884;8.696;2022-09-24T12:44:54;17.10;99.90
22742;DHT22;11538;48.884;8.696;2022-09-24T12:47:29;17.20;99.90
22742;DHT22;11538;48.884;8.696;2022-09-24T12:50:04;17.10;99.90
22742;DHT22;11538;48.884;8.696;2022-09-24T12:55:29;17.10;99.90
22742;DHT22;11538;48.884;8.696;2022-09-24T12:58:00;17.10;99.90
22742;DHT22;11538;48.884;8.696;2022-09-24T13:03:02;17.10;99.90
22742;DHT22;11538;48.884;8.696;2022-09-24T13:05:44;17.10;99.90
22742;DHT22;11538;48.884;8.696;2022-09-24T13:10:57;17.10;99.90
22742;DHT22;11538;48.884;8.696;2022-09-24T13:13:40;17.10;99.90
22742;DHT22;11538;48.884;8.696;2022-09-24T13:16:18;17.10;99.90
22742;DHT22;11538;48.884;8.696;2022-09-24T13:18:55;17.10;99.90
22742;DHT22;11538;48.884;8.696;2022-09-24T13:21:26;17.20;99.90
22742;DHT22;11538;48.884;8.696;2022-09-24T13:23:55;17.20;99.90
22742;DHT22;11538;48.884;8.696;2022-09-24T13:26:27;17.20;99.90
22742;DHT22;11538;48.884;8.696;2022-09-24T13:29:05;17.30;99.90
22742;DHT22;11538;48.884;8.696;2022-09-24T13:31:50;17.20;99.90
22742;DHT22;11538;48.884;8.696;2022-09-24T13:34:28;17.30;99.90
22742;DHT22;11538;48.884;8.696;2022-09-24T13:37:20;17.30;99.90
22742;DHT22;11538;48.884;8.696;2022-09-24T13:40:05;17.40;99.90
22742;DHT22;11538;48.884;8.696;2022-09-24T13:42:49;17.40;99.90
22742;DHT22;11538;48.884;8.696;2022-09-24T13:45:23;17.60;99.90
22742;DHT22;11538;48.884;8.696;2022-09-24T13:48:05;18.00;99.90
22742;DHT22;11538;48.884;8.696;2022-09-24T13:50:49;18.50;99.90
22742;DHT22;11538;48.884;8.696;2022-09-24T13:53:35;18.80;99.90
22742;DHT22;11538;48.884;8.696;2022-09-24T13:56:15;19.00;99.90
22742;DHT22;11538;48.884;8.696;2022-09-24T13:58:44;19.20;99.90
22742;DHT22;11538;48.884;8.696;2022-09-24T14:01:29;19.30;99.90
22742;DHT22;11538;48.884;8.696;2022-09-24T14:04:13;19.30;99.90
22742;DHT22;11538;48.884;8.696;2022-09-24T14:06:47;19.30;99.90
22742;DHT22;11538;48.884;8.696;2022-09-24T14:09:26;19.30;99.90
22742;DHT22;11538;48.884;8.696;2022-09-24T14:11:58;19.30;99.90
22742;DHT22;11538;48.884;8.696;2022-09-24T14:14:29;19.20;99.90
22742;DHT22;11538;48.884;8.696;2022-09-24T14:17:08;19.10;99.90
22742;DHT22;11538;48.884;8.696;2022-09-24T14:19:39;19.10;99.90
22742;DHT22;11538;48.884;8.696;2022-09-24T14:22:13;19.00;99.90
22742;DHT22;11538;48.884;8.696;2022-09-24T14:24:55;18.90;99.90
22742;DHT22;11538;48.884;8.696;2022-09-24T14:27:24;18.80;99.90
22742;DHT22;11538;48.884;8.696;2022-09-24T14:30:02;18.70;99.90
22742;DHT22;11538;48.884;8.696;2022-09-24T14:32:36;18.60;99.90
22742;DHT22;11538;48.884;8.696;2022-09-24T14:35:06;18.50;99.90
22742;DHT22;11538;48.884;8.696;2022-09-24T14:37:53;18.50;99.90
22742;DHT22;11538;48.884;8.696;2022-09-24T14:40:24;18.40;99.90
22742;DHT22;11538;48.884;8.696;2022-09-24T14:42:56;18.40;99.90
22742;DHT22;11538;48.884;8.696;2022-09-24T14:45:36;18.30;99.90
22742;DHT22;11538;48.884;8.696;2022-09-24T14:48:15;18.30;99.90
22742;DHT22;11538;48.884;8.696;2022-09-24T14:50:56;18.20;99.90
22742;DHT22;11538;48.884;8.696;2022-09-24T14:53:29;18.10;99.90
22742;DHT22;11538;48.884;8.696;2022-09-24T14:56:31;18.10;99.90
22742;DHT22;11538;48.884;8.696;2022-09-24T14:58:59;18.10;99.90
22742;DHT22;11538;48.884;8.696;2022-09-24T15:01:31;18.00;99.90
22742;DHT22;11538;48.884;8.696;2022-09-24T15:04:04;18.00;99.90
22742;DHT22;11538;48.884;8.696;2022-09-24T15:06:44;18.00;99.90
22742;DHT22;11538;48.884;8.696;2022-09-24T15:09:24;18.10;99.90
22742;DHT22;11538;48.884;8.696;2022-09-24T15:11:53;18.10;99.90
22742;DHT22;11538;48.884;8.696;2022-09-24T15:14:30;18.10;99.90
22742;DHT22;11538;48.884;8.696;2022-09-24T15:17:09;18.10;99.90
22742;DHT22;11538;48.884;8.696;2022-09-24T15:19:47;18.20;99.90
22742;DHT22;11538;48.884;8.696;2022-09-24T15:22:14;18.10;99.90
22742;DHT22;11538;48.884;8.696;2022-09-24T15:24:40;18.10;99.90
22742;DHT22;11538;48.884;8.696;2022-09-24T15:27:25;18.10;99.90
22742;DHT22;11538;48.884;8.696;2022-09-24T15:29:56;18.10;99.90
22742;DHT22;11538;48.884;8.696;2022-09-24T15:32:27;18.10;99.90
22742;DHT22;11538;48.884;8.696;2022-09-24T15:35:00;18.10;99.90
22742;DHT22;11538;48.884;8.696;2022-09-24T15:37:33;18.00;99.90
22742;DHT22;11538;48.884;8.696;2022-09-24T15:42:49;17.90;99.90
22742;DHT22;11538;48.884;8.696;2022-09-24T15:45:22;17.80;99.90
22742;DHT22;11538;48.884;8.696;2022-09-24T15:47:51;17.80;99.90
22742;DHT22;11538;48.884;8.696;2022-09-24T15:50:20;17.80;99.90
22742;DHT22;11538;48.884;8.696;2022-09-24T15:55:20;17.80;99.90
22742;DHT22;11538;48.884;8.696;2022-09-24T15:57:47;17.80;99.90
22742;DHT22;11538;48.884;8.696;2022-09-24T16:00:16;17.80;99.90
22742;DHT22;11538;48.884;8.696;2022-09-24T16:02:51;17.80;99.90
22742;DHT22;11538;48.884;8.696;2022-09-24T16:05:22;17.80;99.90
22742;DHT22;11538;48.884;8.696;2022-09-24T16:07:49;17.80;99.90
22742;DHT22;11538;48.884;8.696;2022-09-24T16:10:16;17.70;99.90
22742;DHT22;11538;48.884;8.696;2022-09-24T16:12:43;17.70;99.90
22742;DHT22;11538;48.884;8.696;2022-09-24T16:15:12;17.70;99.90
22742;DHT22;11538;48.884;8.696;2022-09-24T16:17:40;17.70;99.90
22742;DHT22;11538;48.884;8.696;2022-09-24T16:20:08;17.60;99.90
22742;DHT22;11538;48.884;8.696;2022-09-24T16:22:35;17.60;99.90
22742;DHT22;11538;48.884;8.696;2022-09-24T16:25:02;17.50;99.90
22742;DHT22;11538;48.884;8.696;2022-09-24T16:27:30;17.40;99.90
22742;DHT22;11538;48.884;8.696;2022-09-24T16:29:57;17.40;99.90
22742;DHT22;11538;48.884;8.696;2022-09-24T16:32:24;17.30;99.90
22742;DHT22;11538;48.884;8.696;2022-09-24T16:34:50;17.30;99.90
22742;DHT22;11538;48.884;8.696;2022-09-24T16:37:20;17.30;99.90
22742;DHT22;11538;48.884;8.696;2022-09-24T16:39:47;17.20;99.90
22742;DHT22;11538;48.884;8.696;2022-09-24T16:42:14;17.20;99.90
22742;DHT22;11538;48.884;8.696;2022-09-24T16:44:41;17.10;99.90
22742;DHT22;11538;48.884;8.696;2022-09-24T16:47:08;17.10;99.90
22742;DHT22;11538;48.884;8.696;2022-09-24T16:49:34;17.00;99.90
22742;DHT22;11538;48.884;8.696;2022-09-24T16:52:02;17.00;99.90
22742;DHT22;11538;48.884;8.696;2022-09-24T16:54:29;16.90;99.90
22742;DHT22;11538;48.884;8.696;2022-09-24T16:56:56;16.90;99.90
22742;DHT22;11538;48.884;8.696;2022-09-24T16:59:24;16.90;99.90
22742;DHT22;11538;48.884;8.696;2022-09-24T17:01:50;16.80;99.90
22742;DHT22;11538;48.884;8.696;2022-09-24T17:04:19;16.80;99.90
22742;DHT22;11538;48.884;8.696;2022-09-24T17:06:48;16.80;99.90
22742;DHT22;11538;48.884;8.696;2022-09-24T17:09:16;16.80;99.90
22742;DHT22;11538;48.884;8.696;2022-09-24T17:12:02;16.70;99.90
22742;DHT22;11538;48.884;8.696;2022-09-24T17:14:31;16.70;99.90
22742;DHT22;11538;48.884;8.696;2022-09-24T17:16:58;16.60;99.90
22742;DHT22;11538;48.884;8.696;2022-09-24T17:19:25;16.60;99.90
22742;DHT22;11538;48.884;8.696;2022-09-24T17:21:54;16.50;99.90
22742;DHT22;11538;48.884;8.696;2022-09-24T17:24:21;16.40;99.90
22742;DHT22;11538;48.884;8.696;2022-09-24T17:26:48;16.40;99.90
22742;DHT22;11538;48.884;8.696;2022-09-24T17:29:16;16.40;99.90
22742;DHT22;11538;48.884;8.696;2022-09-24T17:31:48;16.40;99.90
22742;DHT22;11538;48.884;8.696;2022-09-24T17:34:15;16.30;99.90
22742;DHT22;11538;48.884;8.696;2022-09-24T17:36:42;16.30;99.90
22742;DHT22;11538;48.884;8.696;2022-09-24T17:39:11;16.30;99.90
22742;DHT22;11538;48.884;8.696;2022-09-24T17:41:39;16.20;99.90